Time;durP1;ratioP1;P1;durP2;ratioP2;P2;SDS_P1;SDS_P2;PMS_P1;PMS_P2;Temp;Humidity;BMP_temperature;BMP_pressure;BME280_temperature;BME280_humidity;BME280_pressure;Samples;Min_cycle;Max_cycle;Signal;HPM_P1;HPM_P2
2024/01/20 00:00:14;;;;;;;4.50;3.40;;;;;;;;;;4788210;30;20440;-60
2024/01/20 00:02:42;;;;;;;5.30;3.88;;;;;;;;;;4788206;30;20048;-61
2024/01/20 00:05:11;;;;;;;4.90;3.45;;;;;;;;;;4788476;30;20510;-60
2024/01/20 00:07:40;;;;;;;3.80;3.28;;;;;;;;;;4801573;29;20047;-60
2024/01/20 00:10:11;;;;;;;3.90;3.15;;;;;;;;;;4788167;30;20485;-60
2024/01/20 00:12:40;;;;;;;4.72;3.53;;;;;;;;;;4802357;29;20474;-60
2024/01/20 00:15:09;;;;;;;5.68;3.58;;;;;;;;;;4788341;29;20051;-60
2024/01/20 00:17:38;;;;;;;5.50;3.92;;;;;;;;;;4801847;29;20074;-61
2024/01/20 00:20:06;;;;;;;5.65;3.90;;;;;;;;;;4787892;30;20047;-61
2024/01/20 00:22:34;;;;;;;4.57;3.38;;;;;;;;;;4787784;30;20106;-61
2024/01/20 00:25:02;;;;;;;5.47;3.40;;;;;;;;;;4787840;30;20054;-61
2024/01/20 00:27:31;;;;;;;5.40;3.75;;;;;;;;;;4787864;30;20051;-61
2024/01/20 00:30:00;;;;;;;5.93;4.10;;;;;;;;;;4787831;30;20043;-61
2024/01/20 00:32:28;;;;;;;5.45;4.00;;;;;;;;;;4787755;30;20547;-61
2024/01/20 00:34:57;;;;;;;6.32;3.85;;;;;;;;;;4787795;30;20043;-61
2024/01/20 00:37:35;;;;;;;7.28;3.78;;;;;;;;;;4788042;30;20058;-61
2024/01/20 00:40:04;;;;;;;4.70;3.50;;;;;;;;;;4787962;30;20047;-62
2024/01/20 00:42:32;;;;;;;4.22;3.25;;;;;;;;;;4771542;30;20059;-62
2024/01/20 00:45:00;;;;;;;4.78;3.53;;;;;;;;;;4771475;30;20405;-62
2024/01/20 00:47:28;;;;;;;4.72;3.22;;;;;;;;;;4787520;30;20071;-62
2024/01/20 00:49:55;;;;;;;5.70;3.30;;;;;;;;;;4787471;30;20052;-61
2024/01/20 00:52:23;;;;;;;4.85;3.58;;;;;;;;;;4771541;30;20062;-62
2024/01/20 00:54:51;;;;;;;6.50;3.67;;;;;;;;;;4787613;30;20043;-62
2024/01/20 00:57:19;;;;;;;5.72;3.70;;;;;;;;;;4787371;30;20101;-62
2024/01/20 00:59:46;;;;;;;5.18;3.65;;;;;;;;;;4787497;30;20106;-62
2024/01/20 01:02:16;;;;;;;5.97;3.88;;;;;;;;;;4771317;30;20111;-61
2024/01/20 01:04:44;;;;;;;5.68;3.75;;;;;;;;;;4787282;30;20085;-62
2024/01/20 01:07:12;;;;;;;5.60;3.75;;;;;;;;;;4786894;29;20047;-62
2024/01/20 01:09:40;;;;;;;5.47;3.60;;;;;;;;;;4787269;30;20047;-62
2024/01/20 01:12:08;;;;;;;4.68;3.28;;;;;;;;;;4787339;30;20047;-62
2024/01/20 01:14:35;;;;;;;6.88;4.10;;;;;;;;;;4787293;30;20047;-62
2024/01/20 01:17:03;;;;;;;5.00;3.28;;;;;;;;;;4787243;30;20052;-62
2024/01/20 01:19:31;;;;;;;3.55;2.78;;;;;;;;;;4788125;29;20383;-62
2024/01/20 01:21:58;;;;;;;4.65;2.50;;;;;;;;;;4790600;30;20472;-61
2024/01/20 01:24:26;;;;;;;4.00;2.70;;;;;;;;;;4790829;30;20116;-62
2024/01/20 01:26:53;;;;;;;4.47;2.50;;;;;;;;;;4790778;30;20047;-62
2024/01/20 01:29:21;;;;;;;2.83;2.20;;;;;;;;;;4789584;30;20155;-61
2024/01/20 01:31:49;;;;;;;3.88;2.58;;;;;;;;;;4790930;30;20054;-61
2024/01/20 01:34:16;;;;;;;2.85;2.15;;;;;;;;;;4790721;30;20051;-62
2024/01/20 01:36:44;;;;;;;5.22;2.40;;;;;;;;;;4790529;30;20058;-61
2024/01/20 01:39:11;;;;;;;3.65;2.50;;;;;;;;;;4790761;30;20092;-62
2024/01/20 01:41:39;;;;;;;4.20;2.50;;;;;;;;;;4790711;30;20055;-62
2024/01/20 01:44:07;;;;;;;3.97;2.65;;;;;;;;;;4790660;30;20051;-61
2024/01/20 01:46:34;;;;;;;3.33;2.70;;;;;;;;;;4790456;30;20131;-61
2024/01/20 01:49:02;;;;;;;4.03;2.63;;;;;;;;;;4790800;30;20056;-61
2024/01/20 01:51:31;;;;;;;3.20;2.50;;;;;;;;;;4790434;30;20050;-61
2024/01/20 01:53:59;;;;;;;4.05;2.50;;;;;;;;;;4790517;30;20112;-61
2024/01/20 01:56:27;;;;;;;3.97;2.50;;;;;;;;;;4790577;30;20464;-61
2024/01/20 01:58:56;;;;;;;4.53;2.63;;;;;;;;;;4790463;30;20132;-61
2024/01/20 02:01:23;;;;;;;3.92;2.67;;;;;;;;;;4790392;30;20051;-61
2024/01/20 02:03:51;;;;;;;3.53;2.38;;;;;;;;;;4790318;30;20070;-61
2024/01/20 02:06:19;;;;;;;4.20;2.90;;;;;;;;;;4774010;30;20047;-61
2024/01/20 02:08:47;;;;;;;4.88;2.95;;;;;;;;;;4790024;30;20074;-61
2024/01/20 02:11:15;;;;;;;3.72;2.40;;;;;;;;;;4803897;29;20426;-61
2024/01/20 02:13:43;;;;;;;5.38;3.38;;;;;;;;;;4790177;30;20158;-61
2024/01/20 02:16:10;;;;;;;6.28;3.10;;;;;;;;;;4790293;30;20430;-61
2024/01/20 02:18:38;;;;;;;10.90;2.70;;;;;;;;;;4774130;30;20179;-61
2024/01/20 02:21:06;;;;;;;3.63;2.58;;;;;;;;;;4790013;30;20051;-61
2024/01/20 02:23:41;;;;;;;4.22;2.38;;;;;;;;;;4789782;30;20050;-61
2024/01/20 02:26:08;;;;;;;2.95;2.00;;;;;;;;;;4772155;30;20051;-61
2024/01/20 02:28:37;;;;;;;3.10;1.83;;;;;;;;;;4772024;30;20127;-61
2024/01/20 02:31:05;;;;;;;1.85;1.52;;;;;;;;;;4770471;30;20056;-61
2024/01/20 02:33:32;;;;;;;2.65;1.58;;;;;;;;;;4772167;29;20236;-61
2024/01/20 02:36:00;;;;;;;1.23;1.10;;;;;;;;;;4771931;30;20048;-61
2024/01/20 02:38:28;;;;;;;2.20;1.60;;;;;;;;;;4771812;30;20112;-60
2024/01/20 02:40:56;;;;;;;3.53;2.10;;;;;;;;;;4772080;30;20454;-60
2024/01/20 02:43:23;;;;;;;2.47;1.70;;;;;;;;;;4771877;30;20520;-61
2024/01/20 02:45:51;;;;;;;2.00;1.60;;;;;;;;;;4771746;30;20047;-61
2024/01/20 02:48:18;;;;;;;3.53;2.40;;;;;;;;;;4771724;30;20043;-61
2024/01/20 02:50:46;;;;;;;4.60;2.70;;;;;;;;;;4771695;30;20409;-61
2024/01/20 02:53:13;;;;;;;6.68;2.15;;;;;;;;;;4771751;30;20075;-61
2024/01/20 02:55:41;;;;;;;5.28;3.35;;;;;;;;;;4771626;30;20055;-61
2024/01/20 02:58:09;;;;;;;4.70;2.53;;;;;;;;;;4770478;30;20044;-61
2024/01/20 03:00:36;;;;;;;6.65;3.70;;;;;;;;;;4770404;30;20051;-61
2024/01/20 03:03:04;;;;;;;2.97;2.58;;;;;;;;;;4771491;30;20047;-61
2024/01/20 03:05:32;;;;;;;5.68;4.10;;;;;;;;;;4771343;30;20048;-60
2024/01/20 03:08:00;;;;;;;5.97;3.63;;;;;;;;;;4785407;30;20411;-61
2024/01/20 03:10:27;;;;;;;7.43;4.32;;;;;;;;;;4771401;30;20079;-61
2024/01/20 03:12:55;;;;;;;7.70;3.88;;;;;;;;;;4771341;30;20075;-62
2024/01/20 03:15:24;;;;;;;5.00;3.35;;;;;;;;;;4771326;30;20105;-62
2024/01/20 03:17:51;;;;;;;5.75;3.35;;;;;;;;;;4771179;30;20039;-61
2024/01/20 03:20:19;;;;;;;7.38;5.03;;;;;;;;;;4771131;30;20048;-62
2024/01/20 03:22:47;;;;;;;7.68;3.83;;;;;;;;;;4771187;30;20066;-62
2024/01/20 03:25:14;;;;;;;8.38;4.75;;;;;;;;;;4783288;30;20055;-62
2024/01/20 03:27:42;;;;;;;8.68;4.72;;;;;;;;;;4789390;30;20055;-62
2024/01/20 03:30:10;;;;;;;10.23;5.53;;;;;;;;;;4788935;30;20040;-62
2024/01/20 03:32:37;;;;;;;8.50;4.75;;;;;;;;;;4788740;30;20518;-59
2024/01/20 03:35:05;;;;;;;8.45;5.18;;;;;;;;;;4788852;30;20131;-60
2024/01/20 03:37:33;;;;;;;8.60;5.47;;;;;;;;;;4788862;29;20395;-60
2024/01/20 03:40:00;;;;;;;7.78;4.22;;;;;;;;;;4788735;30;20047;-61
2024/01/20 03:42:28;;;;;;;9.80;5.32;;;;;;;;;;4788113;29;20085;-61
2024/01/20 03:44:56;;;;;;;7.93;4.85;;;;;;;;;;4788443;30;20673;-61
2024/01/20 03:47:24;;;;;;;11.07;5.93;;;;;;;;;;4788498;30;20053;-63
2024/01/20 03:49:51;;;;;;;10.00;6.40;;;;;;;;;;4788507;30;20058;-64
2024/01/20 03:52:19;;;;;;;11.23;5.85;;;;;;;;;;4802194;29;20047;-64
2024/01/20 03:54:46;;;;;;;10.00;5.43;;;;;;;;;;4788529;30;20091;-64
2024/01/20 03:57:14;;;;;;;12.05;6.68;;;;;;;;;;4802288;29;20447;-61
2024/01/20 03:59:41;;;;;;;12.18;6.57;;;;;;;;;;4788414;30;20085;-61
2024/01/20 04:02:09;;;;;;;13.73;7.47;;;;;;;;;;4772208;30;20653;-63
2024/01/20 04:04:37;;;;;;;12.70;7.10;;;;;;;;;;4788527;30;20047;-64
2024/01/20 04:07:05;;;;;;;10.45;5.93;;;;;;;;;;4788514;30;20054;-63
2024/01/20 04:09:33;;;;;;;14.25;7.28;;;;;;;;;;4788441;29;20055;-64
2024/01/20 04:12:01;;;;;;;10.30;5.97;;;;;;;;;;4788133;30;20036;-64
2024/01/20 04:14:28;;;;;;;11.35;6.63;;;;;;;;;;4772146;30;20128;-63
2024/01/20 04:16:56;;;;;;;9.32;5.32;;;;;;;;;;4788223;30;20047;-64
2024/01/20 04:19:24;;;;;;;11.88;6.47;;;;;;;;;;4788070;30;20049;-64
2024/01/20 04:21:51;;;;;;;11.05;7.03;;;;;;;;;;4787992;30;20102;-64
2024/01/20 04:24:19;;;;;;;16.08;7.60;;;;;;;;;;4787921;30;20105;-63
2024/01/20 04:26:46;;;;;;;9.50;4.55;;;;;;;;;;4787996;30;20047;-64
2024/01/20 04:29:14;;;;;;;13.32;7.68;;;;;;;;;;4787851;30;20075;-64
2024/01/20 04:31:41;;;;;;;10.20;6.10;;;;;;;;;;4787979;30;20645;-64
2024/01/20 04:34:09;;;;;;;11.77;6.25;;;;;;;;;;4787787;30;20052;-64
2024/01/20 04:36:37;;;;;;;9.07;5.13;;;;;;;;;;4787833;30;20047;-64
2024/01/20 04:39:04;;;;;;;9.55;6.05;;;;;;;;;;4787746;30;20059;-62
2024/01/20 04:41:32;;;;;;;13.45;7.68;;;;;;;;;;4787572;30;20060;-64
2024/01/20 04:44:00;;;;;;;13.88;7.63;;;;;;;;;;4787771;30;20046;-64
2024/01/20 04:46:27;;;;;;;13.88;7.78;;;;;;;;;;4788038;30;20397;-64
2024/01/20 04:48:55;;;;;;;16.35;8.75;;;;;;;;;;4787355;30;20062;-64
2024/01/20 04:51:23;;;;;;;12.65;7.38;;;;;;;;;;4787780;30;20202;-64
2024/01/20 04:53:51;;;;;;;13.77;7.82;;;;;;;;;;4801363;29;20074;-63
2024/01/20 04:56:20;;;;;;;12.75;7.43;;;;;;;;;;4787550;30;20047;-64
2024/01/20 04:58:47;;;;;;;12.60;7.00;;;;;;;;;;4787559;30;20043;-62
2024/01/20 05:01:15;;;;;;;11.18;7.10;;;;;;;;;;4787677;30;20126;-64
2024/01/20 05:03:43;;;;;;;14.25;6.93;;;;;;;;;;4787611;30;20066;-64
2024/01/20 05:06:10;;;;;;;12.77;7.03;;;;;;;;;;4787410;30;20506;-64
2024/01/20 05:08:38;;;;;;;10.90;6.95;;;;;;;;;;4786917;29;20546;-64
2024/01/20 05:11:06;;;;;;;11.43;7.13;;;;;;;;;;4787389;30;20122;-64
2024/01/20 05:13:33;;;;;;;10.40;5.05;;;;;;;;;;4787409;30;20086;-65
2024/01/20 05:16:01;;;;;;;11.68;5.80;;;;;;;;;;4787318;30;20043;-64
2024/01/20 05:18:29;;;;;;;9.10;5.25;;;;;;;;;;4787432;30;20055;-65
2024/01/20 05:20:56;;;;;;;11.20;5.25;;;;;;;;;;4787143;30;20460;-65
2024/01/20 05:23:24;;;;;;;10.73;5.18;;;;;;;;;;4787378;30;20047;-64
2024/01/20 05:25:52;;;;;;;11.60;5.90;;;;;;;;;;4787128;30;20075;-65
2024/01/20 05:28:19;;;;;;;10.57;6.32;;;;;;;;;;4785982;30;20055;-65
2024/01/20 05:30:47;;;;;;;13.25;7.53;;;;;;;;;;4787316;30;20076;-65
2024/01/20 05:33:14;;;;;;;13.82;7.82;;;;;;;;;;4787415;30;20047;-65
2024/01/20 05:35:42;;;;;;;14.82;8.48;;;;;;;;;;4800670;29;20422;-65
2024/01/20 05:38:10;;;;;;;15.27;8.00;;;;;;;;;;4787118;30;20573;-65
2024/01/20 05:40:37;;;;;;;12.45;6.38;;;;;;;;;;4787081;30;20055;-65
2024/01/20 05:43:05;;;;;;;14.02;6.72;;;;;;;;;;4787387;30;20118;-65
2024/01/20 05:45:33;;;;;;;12.00;5.28;;;;;;;;;;4787151;30;20043;-65
2024/01/20 05:48:00;;;;;;;11.05;5.68;;;;;;;;;;4787363;30;20481;-65
2024/01/20 05:50:29;;;;;;;13.40;6.28;;;;;;;;;;4787041;30;20071;-65
2024/01/20 05:52:57;;;;;;;13.25;6.45;;;;;;;;;;4787192;30;20123;-65
2024/01/20 05:55:24;;;;;;;11.30;6.65;;;;;;;;;;4787054;30;20058;-65
2024/01/20 05:57:52;;;;;;;12.98;7.00;;;;;;;;;;4785879;30;20046;-65
2024/01/20 06:00:21;;;;;;;12.18;5.13;;;;;;;;;;4787006;30;20048;-65
2024/01/20 06:02:49;;;;;;;12.95;5.70;;;;;;;;;;4787046;30;20383;-65
2024/01/20 06:05:17;;;;;;;12.13;6.05;;;;;;;;;;4787463;29;20493;-65
2024/01/20 06:07:45;;;;;;;11.02;5.78;;;;;;;;;;4790214;30;20118;-64
2024/01/20 06:10:12;;;;;;;22.17;11.25;;;;;;;;;;4789070;30;20054;-65
2024/01/20 06:12:40;;;;;;;25.13;12.30;;;;;;;;;;4790200;30;20052;-64
2024/01/20 06:15:07;;;;;;;38.75;15.38;;;;;;;;;;4790036;30;20118;-64
2024/01/20 06:17:35;;;;;;;16.25;9.18;;;;;;;;;;4788996;30;20047;-64
2024/01/20 06:20:03;;;;;;;16.42;9.45;;;;;;;;;;4789874;30;20043;-62
2024/01/20 06:22:41;;;;;;;13.52;6.35;;;;;;;;;;4788638;30;20084;-64
2024/01/20 06:25:18;;;;;;;12.70;5.47;;;;;;;;;;4773853;30;20115;-63
2024/01/20 06:27:47;;;;;;;9.68;5.25;;;;;;;;;;4789629;30;20498;-62
2024/01/20 06:30:15;;;;;;;12.45;6.13;;;;;;;;;;4789930;30;20082;-63
2024/01/20 06:32:42;;;;;;;8.65;6.10;;;;;;;;;;4789826;30;20055;-62
2024/01/20 06:35:10;;;;;;;11.93;5.60;;;;;;;;;;4789721;30;20082;-63
2024/01/20 06:37:37;;;;;;;13.65;6.07;;;;;;;;;;4789842;30;20043;-63
2024/01/20 06:40:06;;;;;;;12.70;5.00;;;;;;;;;;4789825;30;20048;-63
2024/01/20 06:42:33;;;;;;;11.65;6.63;;;;;;;;;;4789714;30;20555;-62
2024/01/20 06:45:01;;;;;;;13.20;6.28;;;;;;;;;;4789779;30;20047;-63
2024/01/20 06:47:30;;;;;;;17.30;8.75;;;;;;;;;;4784107;30;20051;-62
2024/01/20 06:49:57;;;;;;;16.90;9.77;;;;;;;;;;4777618;30;20071;-63
2024/01/20 06:52:25;;;;;;;16.33;9.85;;;;;;;;;;4788430;30;20043;-63
2024/01/20 06:54:52;;;;;;;9.20;4.68;;;;;;;;;;4788384;30;20055;-62
2024/01/20 06:57:20;;;;;;;9.93;6.35;;;;;;;;;;4787297;29;20488;-63
2024/01/20 06:59:48;;;;;;;10.80;5.30;;;;;;;;;;4785589;29;20396;-58
2024/01/20 07:02:15;;;;;;;12.90;7.25;;;;;;;;;;4788563;29;20108;-63
2024/01/20 07:04:43;;;;;;;15.18;7.85;;;;;;;;;;4774395;29;20051;-65
2024/01/20 07:07:11;;;;;;;11.35;6.05;;;;;;;;;;4788254;29;20144;-65
2024/01/20 07:09:42;;;;;;;12.65;6.22;;;;;;;;;;4788570;29;20039;-66
2024/01/20 07:12:09;;;;;;;14.10;8.07;;;;;;;;;;4787430;29;20043;-65
2024/01/20 07:14:37;;;;;;;16.75;8.45;;;;;;;;;;4786855;29;21124;-66
2024/01/20 07:17:05;;;;;;;19.65;9.35;;;;;;;;;;4785623;29;20130;-65
2024/01/20 07:19:32;;;;;;;18.88;9.93;;;;;;;;;;4786364;29;20538;-66
2024/01/20 07:22:00;;;;;;;16.88;8.63;;;;;;;;;;4785613;29;20052;-66
2024/01/20 07:24:29;;;;;;;21.17;10.52;;;;;;;;;;4785708;29;20051;-65
2024/01/20 07:26:56;;;;;;;12.50;8.18;;;;;;;;;;4785957;29;20055;-66
2024/01/20 07:29:24;;;;;;;11.32;5.85;;;;;;;;;;4786217;29;20516;-65
2024/01/20 07:31:52;;;;;;;15.27;7.72;;;;;;;;;;4786016;29;20122;-63
2024/01/20 07:34:20;;;;;;;14.45;7.50;;;;;;;;;;4762336;29;20057;-64
2024/01/20 07:36:47;;;;;;;12.98;6.68;;;;;;;;;;4786057;29;20039;-65
2024/01/20 07:39:15;;;;;;;11.60;5.68;;;;;;;;;;4774020;29;20059;-65
2024/01/20 07:41:43;;;;;;;11.68;6.00;;;;;;;;;;4785637;29;20035;-65
2024/01/20 07:44:10;;;;;;;12.43;6.30;;;;;;;;;;4786367;29;20104;-65
2024/01/20 07:46:38;;;;;;;14.52;8.32;;;;;;;;;;4785897;29;20448;-66
2024/01/20 07:49:06;;;;;;;12.25;6.32;;;;;;;;;;4770365;29;20054;-63
2024/01/20 07:51:33;;;;;;;11.40;5.97;;;;;;;;;;4786800;29;20051;-64
2024/01/20 07:54:01;;;;;;;15.25;6.93;;;;;;;;;;4785671;29;20051;-65
2024/01/20 07:56:31;;;;;;;17.20;8.23;;;;;;;;;;4783435;29;20047;-65
2024/01/20 07:58:58;;;;;;;17.88;8.60;;;;;;;;;;4783046;29;20079;-65
2024/01/20 08:01:26;;;;;;;20.13;7.53;;;;;;;;;;4769999;29;20047;-63
2024/01/20 08:03:54;;;;;;;16.45;7.05;;;;;;;;;;4787276;29;20039;-65
2024/01/20 08:06:21;;;;;;;18.20;8.80;;;;;;;;;;4788297;30;20047;-66
2024/01/20 08:08:49;;;;;;;23.67;8.85;;;;;;;;;;4788212;30;20043;-63
